sensor_id;sensor_type;location;lat;lon;timestamp;P1;durP1;ratioP1;P2;durP2;ratioP2
16878;SDS011;8556;52.218;9.884;2022-11-15T00:01:56;12.93;;;7.67;;
16878;SDS011;8556;52.218;9.884;2022-11-15T00:04:23;15.53;;;9.00;;
16878;SDS011;8556;52.218;9.884;2022-11-15T00:06:50;14.83;;;7.83;;
16878;SDS011;8556;52.218;9.884;2022-11-15T00:09:17;11.97;;;7.07;;
16878;SDS011;8556;52.218;9.884;2022-11-15T00:11:45;13.70;;;7.70;;
16878;SDS011;8556;52.218;9.884;2022-11-15T00:14:12;14.57;;;7.77;;
16878;SDS011;8556;52.218;9.884;2022-11-15T00:16:38;12.97;;;7.87;;
16878;SDS011;8556;52.218;9.884;2022-11-15T00:19:05;13.40;;;8.40;;
16878;SDS011;8556;52.218;9.884;2022-11-15T00:21:32;12.57;;;7.77;;
16878;SDS011;8556;52.218;9.884;2022-11-15T00:23:59;12.33;;;7.33;;
16878;SDS011;8556;52.218;9.884;2022-11-15T00:26:26;12.63;;;7.20;;
16878;SDS011;8556;52.218;9.884;2022-11-15T00:28:54;12.37;;;7.60;;
16878;SDS011;8556;52.218;9.884;2022-11-15T00:31:21;12.80;;;7.37;;
16878;SDS011;8556;52.218;9.884;2022-11-15T00:33:47;13.40;;;7.70;;
16878;SDS011;8556;52.218;9.884;2022-11-15T00:36:14;16.70;;;8.80;;
16878;SDS011;8556;52.218;9.884;2022-11-15T00:38:41;12.30;;;7.27;;
16878;SDS011;8556;52.218;9.884;2022-11-15T00:41:08;11.83;;;7.13;;
16878;SDS011;8556;52.218;9.884;2022-11-15T00:43:35;13.03;;;7.30;;
16878;SDS011;8556;52.218;9.884;2022-11-15T00:46:03;15.43;;;7.37;;
16878;SDS011;8556;52.218;9.884;2022-11-15T00:48:30;13.70;;;7.90;;
16878;SDS011;8556;52.218;9.884;2022-11-15T00:50:57;11.53;;;6.80;;
16878;SDS011;8556;52.218;9.884;2022-11-15T00:53:24;14.47;;;7.97;;
16878;SDS011;8556;52.218;9.884;2022-11-15T00:55:51;13.33;;;7.77;;
16878;SDS011;8556;52.218;9.884;2022-11-15T00:58:18;16.10;;;8.23;;
16878;SDS011;8556;52.218;9.884;2022-11-15T01:00:45;11.80;;;6.90;;
16878;SDS011;8556;52.218;9.884;2022-11-15T01:03:13;13.13;;;7.70;;
16878;SDS011;8556;52.218;9.884;2022-11-15T01:05:40;11.70;;;7.60;;
16878;SDS011;8556;52.218;9.884;2022-11-15T01:08:10;12.10;;;7.60;;
16878;SDS011;8556;52.218;9.884;2022-11-15T01:10:38;13.33;;;7.80;;
16878;SDS011;8556;52.218;9.884;2022-11-15T01:13:05;12.90;;;8.17;;
16878;SDS011;8556;52.218;9.884;2022-11-15T01:15:32;12.73;;;8.07;;
16878;SDS011;8556;52.218;9.884;2022-11-15T01:17:59;12.00;;;7.23;;
16878;SDS011;8556;52.218;9.884;2022-11-15T01:20:27;12.10;;;7.40;;
16878;SDS011;8556;52.218;9.884;2022-11-15T01:22:54;12.33;;;6.93;;
16878;SDS011;8556;52.218;9.884;2022-11-15T01:25:20;14.10;;;7.40;;
16878;SDS011;8556;52.218;9.884;2022-11-15T01:27:47;12.83;;;7.97;;
16878;SDS011;8556;52.218;9.884;2022-11-15T01:30:14;13.03;;;7.63;;
16878;SDS011;8556;52.218;9.884;2022-11-15T01:32:41;12.83;;;7.50;;
16878;SDS011;8556;52.218;9.884;2022-11-15T01:35:08;12.63;;;7.70;;
16878;SDS011;8556;52.218;9.884;2022-11-15T01:37:36;13.17;;;7.87;;
16878;SDS011;8556;52.218;9.884;2022-11-15T01:40:03;11.60;;;7.97;;
16878;SDS011;8556;52.218;9.884;2022-11-15T01:42:30;12.27;;;7.70;;
16878;SDS011;8556;52.218;9.884;2022-11-15T01:44:57;16.10;;;7.57;;
16878;SDS011;8556;52.218;9.884;2022-11-15T01:47:25;10.77;;;7.47;;
16878;SDS011;8556;52.218;9.884;2022-11-15T01:49:55;9.60;;;6.87;;
16878;SDS011;8556;52.218;9.884;2022-11-15T01:52:26;14.07;;;7.30;;
16878;SDS011;8556;52.218;9.884;2022-11-15T01:54:58;11.23;;;6.80;;
16878;SDS011;8556;52.218;9.884;2022-11-15T01:57:29;11.47;;;7.17;;
16878;SDS011;8556;52.218;9.884;2022-11-15T01:59:56;12.70;;;6.90;;
16878;SDS011;8556;52.218;9.884;2022-11-15T02:02:24;13.00;;;7.90;;
16878;SDS011;8556;52.218;9.884;2022-11-15T02:04:51;13.03;;;7.20;;
16878;SDS011;8556;52.218;9.884;2022-11-15T02:07:19;12.80;;;7.33;;
16878;SDS011;8556;52.218;9.884;2022-11-15T02:09:47;12.00;;;7.13;;
16878;SDS011;8556;52.218;9.884;2022-11-15T02:12:17;11.77;;;7.30;;
16878;SDS011;8556;52.218;9.884;2022-11-15T02:14:47;13.50;;;7.43;;
16878;SDS011;8556;52.218;9.884;2022-11-15T02:17:31;12.17;;;7.43;;
16878;SDS011;8556;52.218;9.884;2022-11-15T02:20:27;12.23;;;7.67;;
16878;SDS011;8556;52.218;9.884;2022-11-15T02:23:20;12.73;;;7.40;;
16878;SDS011;8556;52.218;9.884;2022-11-15T02:26:06;11.90;;;7.27;;
16878;SDS011;8556;52.218;9.884;2022-11-15T02:28:55;12.23;;;6.73;;
16878;SDS011;8556;52.218;9.884;2022-11-15T02:31:29;15.83;;;6.83;;
16878;SDS011;8556;52.218;9.884;2022-11-15T02:34:05;10.80;;;6.80;;
16878;SDS011;8556;52.218;9.884;2022-11-15T02:36:43;11.53;;;6.67;;
16878;SDS011;8556;52.218;9.884;2022-11-15T02:39:22;12.17;;;6.80;;
16878;SDS011;8556;52.218;9.884;2022-11-15T02:41:54;11.23;;;7.10;;
16878;SDS011;8556;52.218;9.884;2022-11-15T02:44:26;11.50;;;6.93;;
16878;SDS011;8556;52.218;9.884;2022-11-15T02:46:58;10.83;;;6.47;;
16878;SDS011;8556;52.218;9.884;2022-11-15T02:49:40;11.80;;;7.07;;
16878;SDS011;8556;52.218;9.884;2022-11-15T02:52:13;11.83;;;6.53;;
16878;SDS011;8556;52.218;9.884;2022-11-15T02:54:41;10.97;;;6.57;;
16878;SDS011;8556;52.218;9.884;2022-11-15T02:57:10;7.90;;;5.80;;
16878;SDS011;8556;52.218;9.884;2022-11-15T02:59:44;9.93;;;6.40;;
16878;SDS011;8556;52.218;9.884;2022-11-15T03:02:37;12.00;;;7.17;;
16878;SDS011;8556;52.218;9.884;2022-11-15T03:05:19;10.13;;;6.23;;
16878;SDS011;8556;52.218;9.884;2022-11-15T03:07:52;14.10;;;6.20;;
16878;SDS011;8556;52.218;9.884;2022-11-15T03:10:24;9.33;;;6.00;;
16878;SDS011;8556;52.218;9.884;2022-11-15T03:12:58;8.57;;;5.77;;
16878;SDS011;8556;52.218;9.884;2022-11-15T03:15:31;11.47;;;6.27;;
16878;SDS011;8556;52.218;9.884;2022-11-15T03:18:06;10.27;;;5.60;;
16878;SDS011;8556;52.218;9.884;2022-11-15T03:20:38;10.63;;;6.50;;
16878;SDS011;8556;52.218;9.884;2022-11-15T03:23:06;8.03;;;5.50;;
16878;SDS011;8556;52.218;9.884;2022-11-15T03:25:36;8.93;;;5.57;;
16878;SDS011;8556;52.218;9.884;2022-11-15T03:28:07;10.37;;;6.53;;
16878;SDS011;8556;52.218;9.884;2022-11-15T03:30:37;9.10;;;5.97;;
16878;SDS011;8556;52.218;9.884;2022-11-15T03:33:07;9.23;;;5.60;;
16878;SDS011;8556;52.218;9.884;2022-11-15T03:35:37;9.40;;;6.00;;
16878;SDS011;8556;52.218;9.884;2022-11-15T03:38:09;9.40;;;5.80;;
16878;SDS011;8556;52.218;9.884;2022-11-15T03:40:42;10.67;;;6.00;;
16878;SDS011;8556;52.218;9.884;2022-11-15T03:43:14;11.23;;;5.53;;
16878;SDS011;8556;52.218;9.884;2022-11-15T03:45:46;8.67;;;5.27;;
16878;SDS011;8556;52.218;9.884;2022-11-15T03:48:18;9.37;;;5.93;;
16878;SDS011;8556;52.218;9.884;2022-11-15T03:50:50;9.33;;;6.00;;
16878;SDS011;8556;52.218;9.884;2022-11-15T03:53:17;7.63;;;5.53;;
16878;SDS011;8556;52.218;9.884;2022-11-15T03:55:44;10.03;;;6.27;;
16878;SDS011;8556;52.218;9.884;2022-11-15T03:58:10;9.13;;;5.03;;
16878;SDS011;8556;52.218;9.884;2022-11-15T04:00:37;8.97;;;5.27;;
16878;SDS011;8556;52.218;9.884;2022-11-15T04:03:04;7.03;;;4.87;;
16878;SDS011;8556;52.218;9.884;2022-11-15T04:05:33;10.93;;;6.43;;
16878;SDS011;8556;52.218;9.884;2022-11-15T04:08:00;7.97;;;5.50;;
16878;SDS011;8556;52.218;9.884;2022-11-15T04:10:27;8.67;;;5.77;;
16878;SDS011;8556;52.218;9.884;2022-11-15T04:12:54;10.20;;;5.43;;
16878;SDS011;8556;52.218;9.884;2022-11-15T04:15:22;7.47;;;5.30;;
16878;SDS011;8556;52.218;9.884;2022-11-15T04:17:50;10.07;;;5.63;;
16878;SDS011;8556;52.218;9.884;2022-11-15T04:20:19;7.93;;;5.10;;
16878;SDS011;8556;52.218;9.884;2022-11-15T04:23:07;29.03;;;19.23;;
16878;SDS011;8556;52.218;9.884;2022-11-15T04:25:54;50.90;;;34.73;;
16878;SDS011;8556;52.218;9.884;2022-11-15T04:28:22;18.50;;;9.27;;
16878;SDS011;8556;52.218;9.884;2022-11-15T04:30:49;8.37;;;5.80;;
16878;SDS011;8556;52.218;9.884;2022-11-15T04:33:16;7.33;;;5.23;;
16878;SDS011;8556;52.218;9.884;2022-11-15T04:35:43;9.03;;;6.10;;
16878;SDS011;8556;52.218;9.884;2022-11-15T04:38:32;9.37;;;5.23;;
16878;SDS011;8556;52.218;9.884;2022-11-15T04:40:58;11.13;;;5.70;;
16878;SDS011;8556;52.218;9.884;2022-11-15T04:43:25;8.03;;;5.23;;
16878;SDS011;8556;52.218;9.884;2022-11-15T04:45:52;8.77;;;4.83;;
16878;SDS011;8556;52.218;9.884;2022-11-15T04:48:18;11.10;;;5.10;;
16878;SDS011;8556;52.218;9.884;2022-11-15T04:50:47;6.67;;;5.20;;
16878;SDS011;8556;52.218;9.884;2022-11-15T04:53:14;8.30;;;5.13;;
16878;SDS011;8556;52.218;9.884;2022-11-15T04:55:45;8.13;;;5.30;;
16878;SDS011;8556;52.218;9.884;2022-11-15T04:58:12;8.37;;;5.27;;
16878;SDS011;8556;52.218;9.884;2022-11-15T05:00:39;9.00;;;5.20;;
16878;SDS011;8556;52.218;9.884;2022-11-15T05:03:05;9.47;;;5.47;;
16878;SDS011;8556;52.218;9.884;2022-11-15T05:05:50;12.20;;;5.70;;
16878;SDS011;8556;52.218;9.884;2022-11-15T05:08:17;10.43;;;5.50;;
16878;SDS011;8556;52.218;9.884;2022-11-15T05:10:45;9.00;;;5.03;;
16878;SDS011;8556;52.218;9.884;2022-11-15T05:13:12;8.97;;;5.30;;
16878;SDS011;8556;52.218;9.884;2022-11-15T05:15:38;9.30;;;5.23;;
16878;SDS011;8556;52.218;9.884;2022-11-15T05:18:05;8.80;;;5.33;;
16878;SDS011;8556;52.218;9.884;2022-11-15T05:20:32;8.87;;;5.43;;
16878;SDS011;8556;52.218;9.884;2022-11-15T05:22:59;10.33;;;4.90;;
16878;SDS011;8556;52.218;9.884;2022-11-15T05:25:26;8.73;;;5.33;;
16878;SDS011;8556;52.218;9.884;2022-11-15T05:27:54;8.10;;;4.83;;
16878;SDS011;8556;52.218;9.884;2022-11-15T05:30:21;6.17;;;4.70;;
16878;SDS011;8556;52.218;9.884;2022-11-15T05:32:48;7.60;;;4.97;;
16878;SDS011;8556;52.218;9.884;2022-11-15T05:35:17;7.83;;;5.27;;
16878;SDS011;8556;52.218;9.884;2022-11-15T05:37:47;5.43;;;4.40;;
16878;SDS011;8556;52.218;9.884;2022-11-15T05:40:15;6.57;;;4.60;;
16878;SDS011;8556;52.218;9.884;2022-11-15T05:42:42;7.07;;;5.13;;
16878;SDS011;8556;52.218;9.884;2022-11-15T05:45:10;7.63;;;4.97;;
16878;SDS011;8556;52.218;9.884;2022-11-15T05:47:37;8.83;;;5.37;;
16878;SDS011;8556;52.218;9.884;2022-11-15T05:50:06;7.10;;;4.60;;
16878;SDS011;8556;52.218;9.884;2022-11-15T05:52:34;7.67;;;5.00;;
16878;SDS011;8556;52.218;9.884;2022-11-15T05:55:03;9.70;;;5.50;;
16878;SDS011;8556;52.218;9.884;2022-11-15T05:57:32;9.30;;;5.23;;
16878;SDS011;8556;52.218;9.884;2022-11-15T05:59:59;9.33;;;5.73;;
16878;SDS011;8556;52.218;9.884;2022-11-15T06:02:28;9.20;;;5.60;;
16878;SDS011;8556;52.218;9.884;2022-11-15T06:04:55;11.27;;;6.43;;
16878;SDS011;8556;52.218;9.884;2022-11-15T06:07:21;8.97;;;5.77;;
16878;SDS011;8556;52.218;9.884;2022-11-15T06:09:48;10.10;;;5.60;;
16878;SDS011;8556;52.218;9.884;2022-11-15T06:12:15;8.43;;;5.47;;
16878;SDS011;8556;52.218;9.884;2022-11-15T06:14:42;9.20;;;5.67;;
16878;SDS011;8556;52.218;9.884;2022-11-15T06:17:08;10.23;;;6.23;;
16878;SDS011;8556;52.218;9.884;2022-11-15T06:19:36;8.73;;;5.53;;
16878;SDS011;8556;52.218;9.884;2022-11-15T06:22:03;10.77;;;5.43;;
16878;SDS011;8556;52.218;9.884;2022-11-15T06:24:30;8.73;;;5.63;;
16878;SDS011;8556;52.218;9.884;2022-11-15T06:26:57;8.70;;;5.27;;
16878;SDS011;8556;52.218;9.884;2022-11-15T06:29:24;12.20;;;6.20;;
16878;SDS011;8556;52.218;9.884;2022-11-15T06:31:50;9.53;;;5.03;;
16878;SDS011;8556;52.218;9.884;2022-11-15T06:34:17;11.87;;;6.17;;
16878;SDS011;8556;52.218;9.884;2022-11-15T06:36:45;8.87;;;5.93;;
16878;SDS011;8556;52.218;9.884;2022-11-15T06:39:12;9.83;;;5.63;;
16878;SDS011;8556;52.218;9.884;2022-11-15T06:41:39;11.20;;;6.20;;
16878;SDS011;8556;52.218;9.884;2022-11-15T06:44:06;10.13;;;5.60;;
16878;SDS011;8556;52.218;9.884;2022-11-15T06:46:32;9.37;;;5.63;;
16878;SDS011;8556;52.218;9.884;2022-11-15T06:48:59;9.53;;;5.53;;
16878;SDS011;8556;52.218;9.884;2022-11-15T06:51:26;7.13;;;4.97;;
16878;SDS011;8556;52.218;9.884;2022-11-15T06:53:54;9.20;;;5.80;;
16878;SDS011;8556;52.218;9.884;2022-11-15T06:56:21;9.97;;;5.70;;
16878;SDS011;8556;52.218;9.884;2022-11-15T06:58:48;9.43;;;5.83;;
16878;SDS011;8556;52.218;9.884;2022-11-15T07:01:14;8.53;;;5.53;;
16878;SDS011;8556;52.218;9.884;2022-11-15T07:03:41;8.90;;;5.37;;
16878;SDS011;8556;52.218;9.884;2022-11-15T07:06:08;8.93;;;6.07;;
16878;SDS011;8556;52.218;9.884;2022-11-15T07:08:36;8.60;;;5.53;;
16878;SDS011;8556;52.218;9.884;2022-11-15T07:11:04;10.90;;;5.50;;
16878;SDS011;8556;52.218;9.884;2022-11-15T07:13:33;11.83;;;6.17;;
16878;SDS011;8556;52.218;9.884;2022-11-15T07:16:01;8.80;;;6.17;;
16878;SDS011;8556;52.218;9.884;2022-11-15T07:18:29;9.03;;;6.30;;
16878;SDS011;8556;52.218;9.884;2022-11-15T07:20:59;12.70;;;6.60;;
16878;SDS011;8556;52.218;9.884;2022-11-15T07:23:26;11.43;;;6.50;;
16878;SDS011;8556;52.218;9.884;2022-11-15T07:25:53;10.57;;;6.17;;
16878;SDS011;8556;52.218;9.884;2022-11-15T07:28:23;12.87;;;6.93;;
16878;SDS011;8556;52.218;9.884;2022-11-15T07:30:50;10.23;;;6.80;;
16878;SDS011;8556;52.218;9.884;2022-11-15T07:33:17;10.53;;;6.83;;
16878;SDS011;8556;52.218;9.884;2022-11-15T07:35:43;9.97;;;6.37;;
16878;SDS011;8556;52.218;9.884;2022-11-15T07:38:14;13.13;;;6.83;;
16878;SDS011;8556;52.218;9.884;2022-11-15T07:40:41;8.93;;;5.90;;
16878;SDS011;8556;52.218;9.884;2022-11-15T07:43:07;10.77;;;6.23;;
16878;SDS011;8556;52.218;9.884;2022-11-15T07:45:41;9.40;;;6.93;;
16878;SDS011;8556;52.218;9.884;2022-11-15T07:48:08;11.43;;;6.37;;
16878;SDS011;8556;52.218;9.884;2022-11-15T07:50:35;11.23;;;6.63;;
16878;SDS011;8556;52.218;9.884;2022-11-15T07:53:02;12.87;;;6.17;;
16878;SDS011;8556;52.218;9.884;2022-11-15T07:55:29;8.77;;;5.50;;
16878;SDS011;8556;52.218;9.884;2022-11-15T07:57:59;8.27;;;5.80;;
16878;SDS011;8556;52.218;9.884;2022-11-15T08:00:27;10.67;;;5.53;;
16878;SDS011;8556;52.218;9.884;2022-11-15T08:03:01;11.23;;;6.00;;
16878;SDS011;8556;52.218;9.884;2022-11-15T08:05:29;11.53;;;6.40;;
16878;SDS011;8556;52.218;9.884;2022-11-15T08:07:56;10.10;;;6.00;;
16878;SDS011;8556;52.218;9.884;2022-11-15T08:10:24;7.13;;;5.63;;
16878;SDS011;8556;52.218;9.884;2022-11-15T08:12:56;11.77;;;6.47;;
16878;SDS011;8556;52.218;9.884;2022-11-15T08:15:24;9.23;;;5.60;;
16878;SDS011;8556;52.218;9.884;2022-11-15T08:17:53;11.30;;;6.10;;
16878;SDS011;8556;52.218;9.884;2022-11-15T08:20:22;9.20;;;5.60;;
16878;SDS011;8556;52.218;9.884;2022-11-15T08:22:49;9.80;;;5.53;;
16878;SDS011;8556;52.218;9.884;2022-11-15T08:25:15;9.37;;;6.60;;
16878;SDS011;8556;52.218;9.884;2022-11-15T08:27:42;9.47;;;6.03;;
16878;SDS011;8556;52.218;9.884;2022-11-15T08:30:10;9.70;;;5.93;;
16878;SDS011;8556;52.218;9.884;2022-11-15T08:32:38;8.17;;;5.53;;
16878;SDS011;8556;52.218;9.884;2022-11-15T08:35:05;8.23;;;5.60;;
16878;SDS011;8556;52.218;9.884;2022-11-15T08:37:34;9.50;;;5.10;;
16878;SDS011;8556;52.218;9.884;2022-11-15T08:40:02;10.47;;;5.37;;
16878;SDS011;8556;52.218;9.884;2022-11-15T08:42:29;8.10;;;4.97;;
16878;SDS011;8556;52.218;9.884;2022-11-15T08:44:56;8.93;;;5.47;;
16878;SDS011;8556;52.218;9.884;2022-11-15T08:47:23;9.50;;;5.00;;
16878;SDS011;8556;52.218;9.884;2022-11-15T08:49:50;6.33;;;4.50;;
16878;SDS011;8556;52.218;9.884;2022-11-15T08:52:17;6.50;;;4.47;;
16878;SDS011;8556;52.218;9.884;2022-11-15T08:54:45;5.17;;;4.37;;
16878;SDS011;8556;52.218;9.884;2022-11-15T08:57:12;6.53;;;4.17;;
16878;SDS011;8556;52.218;9.884;2022-11-15T08:59:39;6.03;;;3.90;;
16878;SDS011;8556;52.218;9.884;2022-11-15T09:02:05;8.50;;;4.23;;
16878;SDS011;8556;52.218;9.884;2022-11-15T09:04:32;7.97;;;4.70;;
16878;SDS011;8556;52.218;9.884;2022-11-15T09:06:59;8.70;;;4.40;;
16878;SDS011;8556;52.218;9.884;2022-11-15T09:09:26;5.77;;;3.73;;
16878;SDS011;8556;52.218;9.884;2022-11-15T09:11:54;6.23;;;3.80;;
16878;SDS011;8556;52.218;9.884;2022-11-15T09:14:21;5.90;;;3.90;;
16878;SDS011;8556;52.218;9.884;2022-11-15T09:16:47;4.93;;;3.70;;
16878;SDS011;8556;52.218;9.884;2022-11-15T09:19:14;5.77;;;4.00;;
16878;SDS011;8556;52.218;9.884;2022-11-15T09:21:41;6.37;;;3.77;;
16878;SDS011;8556;52.218;9.884;2022-11-15T09:24:08;6.47;;;4.10;;
16878;SDS011;8556;52.218;9.884;2022-11-15T09:26:34;5.93;;;3.77;;
16878;SDS011;8556;52.218;9.884;2022-11-15T09:29:03;5.00;;;4.23;;
16878;SDS011;8556;52.218;9.884;2022-11-15T09:31:29;7.57;;;4.80;;
16878;SDS011;8556;52.218;9.884;2022-11-15T09:33:56;6.47;;;4.07;;
16878;SDS011;8556;52.218;9.884;2022-11-15T09:36:23;6.47;;;4.40;;
16878;SDS011;8556;52.218;9.884;2022-11-15T09:38:50;8.87;;;4.10;;
16878;SDS011;8556;52.218;9.884;2022-11-15T09:41:25;7.03;;;4.57;;
16878;SDS011;8556;52.218;9.884;2022-11-15T09:44:09;8.70;;;4.60;;
16878;SDS011;8556;52.218;9.884;2022-11-15T09:46:51;7.17;;;4.20;;
16878;SDS011;8556;52.218;9.884;2022-11-15T09:49:26;4.70;;;3.40;;
16878;SDS011;8556;52.218;9.884;2022-11-15T09:51:55;6.37;;;3.70;;
16878;SDS011;8556;52.218;9.884;2022-11-15T09:54:25;7.63;;;4.20;;
16878;SDS011;8556;52.218;9.884;2022-11-15T09:56:55;8.33;;;4.40;;
16878;SDS011;8556;52.218;9.884;2022-11-15T09:59:35;6.87;;;3.90;;
16878;SDS011;8556;52.218;9.884;2022-11-15T10:02:15;5.23;;;4.00;;
16878;SDS011;8556;52.218;9.884;2022-11-15T10:04:57;5.87;;;4.30;;
16878;SDS011;8556;52.218;9.884;2022-11-15T10:07:25;4.27;;;3.30;;
16878;SDS011;8556;52.218;9.884;2022-11-15T10:09:58;7.13;;;4.23;;
16878;SDS011;8556;52.218;9.884;2022-11-15T10:12:30;4.80;;;4.07;;
16878;SDS011;8556;52.218;9.884;2022-11-15T10:15:00;6.80;;;3.87;;
16878;SDS011;8556;52.218;9.884;2022-11-15T10:20:34;5.47;;;3.73;;
16878;SDS011;8556;52.218;9.884;2022-11-15T10:23:10;5.30;;;3.63;;
16878;SDS011;8556;52.218;9.884;2022-11-15T10:25:40;5.60;;;3.80;;
16878;SDS011;8556;52.218;9.884;2022-11-15T10:28:09;5.15;;;3.63;;
16878;SDS011;8556;52.218;9.884;2022-11-15T10:30:43;5.45;;;3.33;;
16878;SDS011;8556;52.218;9.884;2022-11-15T10:33:13;4.07;;;3.10;;
16878;SDS011;8556;52.218;9.884;2022-11-15T10:36:16;4.45;;;3.33;;
16878;SDS011;8556;52.218;9.884;2022-11-15T10:38:51;3.28;;;2.97;;
16878;SDS011;8556;52.218;9.884;2022-11-15T10:41:21;5.72;;;3.72;;
16878;SDS011;8556;52.218;9.884;2022-11-15T10:44:03;5.43;;;3.40;;
16878;SDS011;8556;52.218;9.884;2022-11-15T10:46:45;4.18;;;3.33;;
16878;SDS011;8556;52.218;9.884;2022-11-15T10:49:16;5.22;;;3.60;;
16878;SDS011;8556;52.218;9.884;2022-11-15T10:51:45;5.03;;;3.53;;
16878;SDS011;8556;52.218;9.884;2022-11-15T10:54:18;6.22;;;3.58;;
16878;SDS011;8556;52.218;9.884;2022-11-15T10:56:49;5.72;;;3.65;;
16878;SDS011;8556;52.218;9.884;2022-11-15T10:59:20;4.03;;;3.00;;
16878;SDS011;8556;52.218;9.884;2022-11-15T11:01:54;4.47;;;3.10;;
16878;SDS011;8556;52.218;9.884;2022-11-15T11:04:21;5.93;;;3.50;;
16878;SDS011;8556;52.218;9.884;2022-11-15T11:06:49;4.90;;;3.23;;
16878;SDS011;8556;52.218;9.884;2022-11-15T11:09:23;6.60;;;3.80;;
16878;SDS011;8556;52.218;9.884;2022-11-15T11:11:55;6.35;;;3.28;;
16878;SDS011;8556;52.218;9.884;2022-11-15T11:14:22;6.28;;;3.78;;
16878;SDS011;8556;52.218;9.884;2022-11-15T11:16:54;4.30;;;3.20;;
16878;SDS011;8556;52.218;9.884;2022-11-15T11:19:30;3.15;;;2.85;;
16878;SDS011;8556;52.218;9.884;2022-11-15T11:22:17;5.03;;;3.43;;
16878;SDS011;8556;52.218;9.884;2022-11-15T11:24:51;5.93;;;3.30;;
16878;SDS011;8556;52.218;9.884;2022-11-15T11:27:29;5.30;;;3.47;;
16878;SDS011;8556;52.218;9.884;2022-11-15T11:30:09;7.00;;;3.67;;
16878;SDS011;8556;52.218;9.884;2022-11-15T11:32:56;6.53;;;3.73;;
16878;SDS011;8556;52.218;9.884;2022-11-15T11:35:32;4.43;;;3.40;;
16878;SDS011;8556;52.218;9.884;2022-11-15T11:38:10;5.50;;;4.10;;
16878;SDS011;8556;52.218;9.884;2022-11-15T11:40:51;6.55;;;3.85;;
16878;SDS011;8556;52.218;9.884;2022-11-15T11:43:27;5.57;;;3.67;;
16878;SDS011;8556;52.218;9.884;2022-11-15T11:46:10;6.53;;;3.37;;
16878;SDS011;8556;52.218;9.884;2022-11-15T11:48:50;7.03;;;3.90;;
16878;SDS011;8556;52.218;9.884;2022-11-15T11:51:23;5.63;;;3.33;;
16878;SDS011;8556;52.218;9.884;2022-11-15T11:53:54;4.17;;;3.20;;
16878;SDS011;8556;52.218;9.884;2022-11-15T11:56:25;5.53;;;3.20;;
16878;SDS011;8556;52.218;9.884;2022-11-15T11:58:55;5.03;;;3.70;;
16878;SDS011;8556;52.218;9.884;2022-11-15T12:01:26;6.33;;;3.43;;
16878;SDS011;8556;52.218;9.884;2022-11-15T12:03:59;6.55;;;3.67;;
16878;SDS011;8556;52.218;9.884;2022-11-15T12:06:36;5.03;;;3.53;;
16878;SDS011;8556;52.218;9.884;2022-11-15T12:09:11;5.57;;;3.63;;
16878;SDS011;8556;52.218;9.884;2022-11-15T12:11:43;5.97;;;3.53;;
16878;SDS011;8556;52.218;9.884;2022-11-15T12:14:21;7.77;;;4.20;;
16878;SDS011;8556;52.218;9.884;2022-11-15T12:16:53;6.10;;;3.70;;
16878;SDS011;8556;52.218;9.884;2022-11-15T12:19:21;6.10;;;3.70;;
16878;SDS011;8556;52.218;9.884;2022-11-15T12:21:49;7.47;;;3.63;;
16878;SDS011;8556;52.218;9.884;2022-11-15T12:24:22;6.70;;;3.60;;
16878;SDS011;8556;52.218;9.884;2022-11-15T12:26:54;5.87;;;3.40;;
16878;SDS011;8556;52.218;9.884;2022-11-15T12:29:28;4.33;;;3.50;;
16878;SDS011;8556;52.218;9.884;2022-11-15T12:31:59;5.53;;;3.80;;
16878;SDS011;8556;52.218;9.884;2022-11-15T12:34:34;6.80;;;3.80;;
16878;SDS011;8556;52.218;9.884;2022-11-15T12:40:04;7.53;;;4.10;;
16878;SDS011;8556;52.218;9.884;2022-11-15T12:42:56;7.57;;;4.20;;
16878;SDS011;8556;52.218;9.884;2022-11-15T12:45:25;6.77;;;4.50;;
16878;SDS011;8556;52.218;9.884;2022-11-15T12:47:55;8.13;;;4.43;;
16878;SDS011;8556;52.218;9.884;2022-11-15T12:50:56;7.40;;;3.70;;
16878;SDS011;8556;52.218;9.884;2022-11-15T12:53:27;6.13;;;4.33;;
16878;SDS011;8556;52.218;9.884;2022-11-15T12:56:09;5.90;;;4.30;;
16878;SDS011;8556;52.218;9.884;2022-11-15T12:58:49;5.27;;;3.47;;
16878;SDS011;8556;52.218;9.884;2022-11-15T13:04:25;4.83;;;3.70;;
16878;SDS011;8556;52.218;9.884;2022-11-15T13:06:55;12.47;;;6.37;;
16878;SDS011;8556;52.218;9.884;2022-11-15T13:20:52;5.97;;;3.90;;
16878;SDS011;8556;52.218;9.884;2022-11-15T13:23:21;6.25;;;3.80;;
16878;SDS011;8556;52.218;9.884;2022-11-15T13:25:53;7.82;;;3.40;;
16878;SDS011;8556;52.218;9.884;2022-11-15T13:28:30;4.67;;;3.50;;
16878;SDS011;8556;52.218;9.884;2022-11-15T13:31:00;4.28;;;3.03;;
16878;SDS011;8556;52.218;9.884;2022-11-15T13:33:30;4.85;;;3.40;;
16878;SDS011;8556;52.218;9.884;2022-11-15T13:36:00;5.18;;;3.22;;
16878;SDS011;8556;52.218;9.884;2022-11-15T13:38:31;6.45;;;3.05;;
16878;SDS011;8556;52.218;9.884;2022-11-15T13:40:59;5.57;;;3.50;;
16878;SDS011;8556;52.218;9.884;2022-11-15T13:43:37;6.35;;;3.60;;
16878;SDS011;8556;52.218;9.884;2022-11-15T13:46:09;5.45;;;3.40;;
16878;SDS011;8556;52.218;9.884;2022-11-15T13:48:38;4.97;;;3.03;;
16878;SDS011;8556;52.218;9.884;2022-11-15T13:51:07;6.33;;;3.37;;
16878;SDS011;8556;52.218;9.884;2022-11-15T13:53:42;6.10;;;3.23;;
16878;SDS011;8556;52.218;9.884;2022-11-15T13:56:13;6.47;;;3.25;;
16878;SDS011;8556;52.218;9.884;2022-11-15T13:58:40;4.72;;;3.30;;
16878;SDS011;8556;52.218;9.884;2022-11-15T14:01:08;5.10;;;3.30;;
16878;SDS011;8556;52.218;9.884;2022-11-15T14:03:48;7.55;;;3.92;;
16878;SDS011;8556;52.218;9.884;2022-11-15T14:06:19;5.00;;;3.20;;
16878;SDS011;8556;52.218;9.884;2022-11-15T14:09:03;6.87;;;3.23;;
16878;SDS011;8556;52.218;9.884;2022-11-15T14:11:51;5.43;;;3.03;;
16878;SDS011;8556;52.218;9.884;2022-11-15T14:14:20;3.40;;;2.83;;
16878;SDS011;8556;52.218;9.884;2022-11-15T14:16:49;7.20;;;3.42;;
16878;SDS011;8556;52.218;9.884;2022-11-15T14:19:37;3.63;;;3.10;;
16878;SDS011;8556;52.218;9.884;2022-11-15T14:22:13;5.03;;;3.40;;
16878;SDS011;8556;52.218;9.884;2022-11-15T14:24:43;4.07;;;3.00;;
16878;SDS011;8556;52.218;9.884;2022-11-15T14:27:15;5.30;;;3.27;;
16878;SDS011;8556;52.218;9.884;2022-11-15T14:29:50;5.18;;;3.30;;
16878;SDS011;8556;52.218;9.884;2022-11-15T14:32:19;4.88;;;3.08;;
16878;SDS011;8556;52.218;9.884;2022-11-15T14:34:47;5.43;;;3.07;;
16878;SDS011;8556;52.218;9.884;2022-11-15T14:37:18;3.43;;;2.93;;
16878;SDS011;8556;52.218;9.884;2022-11-15T14:39:49;4.53;;;3.17;;
16878;SDS011;8556;52.218;9.884;2022-11-15T14:42:16;7.20;;;3.70;;
16878;SDS011;8556;52.218;9.884;2022-11-15T14:44:43;3.83;;;3.42;;
16878;SDS011;8556;52.218;9.884;2022-11-15T14:47:10;7.27;;;3.47;;
16878;SDS011;8556;52.218;9.884;2022-11-15T14:49:37;5.03;;;3.07;;
16878;SDS011;8556;52.218;9.884;2022-11-15T14:52:07;4.63;;;3.37;;
16878;SDS011;8556;52.218;9.884;2022-11-15T14:54:42;5.00;;;3.20;;
16878;SDS011;8556;52.218;9.884;2022-11-15T14:57:10;5.27;;;3.60;;
16878;SDS011;8556;52.218;9.884;2022-11-15T14:59:37;3.87;;;3.23;;
16878;SDS011;8556;52.218;9.884;2022-11-15T15:02:08;5.10;;;3.50;;
16878;SDS011;8556;52.218;9.884;2022-11-15T15:04:41;5.67;;;3.20;;
16878;SDS011;8556;52.218;9.884;2022-11-15T15:07:07;5.40;;;3.57;;
16878;SDS011;8556;52.218;9.884;2022-11-15T15:09:34;5.07;;;3.57;;
16878;SDS011;8556;52.218;9.884;2022-11-15T15:12:01;6.27;;;3.80;;
16878;SDS011;8556;52.218;9.884;2022-11-15T15:14:29;4.63;;;3.10;;
16878;SDS011;8556;52.218;9.884;2022-11-15T15:16:56;4.40;;;3.30;;
16878;SDS011;8556;52.218;9.884;2022-11-15T15:19:23;5.37;;;3.60;;
16878;SDS011;8556;52.218;9.884;2022-11-15T15:21:50;5.20;;;3.80;;
16878;SDS011;8556;52.218;9.884;2022-11-15T15:24:17;5.93;;;3.83;;
16878;SDS011;8556;52.218;9.884;2022-11-15T15:26:43;6.23;;;3.70;;
16878;SDS011;8556;52.218;9.884;2022-11-15T15:29:10;6.17;;;3.33;;
16878;SDS011;8556;52.218;9.884;2022-11-15T15:31:38;4.33;;;3.40;;
16878;SDS011;8556;52.218;9.884;2022-11-15T15:34:05;4.87;;;3.50;;
16878;SDS011;8556;52.218;9.884;2022-11-15T15:36:32;4.80;;;3.47;;
16878;SDS011;8556;52.218;9.884;2022-11-15T15:38:58;4.93;;;3.57;;